Time;durP1;ratioP1;P1;durP2;ratioP2;P2;SDS_P1;SDS_P2;PMS_P1;PMS_P2;Temp;Humidity;BMP_temperature;BMP_pressure;BME280_temperature;BME280_humidity;BME280_pressure;Samples;Min_cycle;Max_cycle;Signal;HPM_P1;HPM_P2
2023/10/16 00:00:40;;;;;;;;;5.33;4.33;;;;;;;;5102191;27;45284;-77
2023/10/16 00:03:06;;;;;;;;;5.67;5.67;;;;;;;;5102471;27;45347;-77
2023/10/16 00:05:39;;;;;;;;;6.00;6.00;;;;;;;;5103712;27;45305;-77
2023/10/16 00:08:07;;;;;;;;;7.67;6.00;;;;;;;;5099561;27;46339;-77
2023/10/16 00:10:33;;;;;;;;;5.67;5.67;;;;;;;;5100878;27;45349;-77
2023/10/16 00:13:04;;;;;;;;;7.00;6.33;;;;;;;;5100860;27;45290;-77
2023/10/16 00:15:30;;;;;;;;;5.00;5.00;;;;;;;;5103340;27;45346;-77
2023/10/16 00:17:57;;;;;;;;;5.00;5.00;;;;;;;;5102537;27;45485;-77
2023/10/16 00:20:24;;;;;;;;;5.00;3.00;;;;;;;;5101410;27;45454;-77
2023/10/16 00:22:50;;;;;;;;;5.00;3.00;;;;;;;;5102742;27;45298;-77
2023/10/16 00:25:16;;;;;;;;;4.33;3.33;;;;;;;;5099436;27;45348;-77
2023/10/16 00:27:41;;;;;;;;;5.67;4.00;;;;;;;;5100215;27;45353;-77
2023/10/16 00:30:08;;;;;;;;;5.00;5.00;;;;;;;;5085407;27;47144;-76
2023/10/16 00:32:36;;;;;;;;;5.00;4.00;;;;;;;;5081607;28;45350;-77
2023/10/16 00:35:03;;;;;;;;;3.00;3.00;;;;;;;;5079515;28;45415;-76
2023/10/16 00:37:28;;;;;;;;;5.00;5.00;;;;;;;;5082440;28;45602;-77
2023/10/16 00:39:53;;;;;;;;;5.00;5.00;;;;;;;;5082877;28;46225;-77
2023/10/16 00:42:18;;;;;;;;;5.00;4.33;;;;;;;;5079304;28;45279;-77
2023/10/16 00:44:44;;;;;;;;;5.00;5.00;;;;;;;;5080547;28;45568;-76
2023/10/16 00:47:09;;;;;;;;;6.67;5.00;;;;;;;;5078275;28;47187;-76
2023/10/16 00:49:35;;;;;;;;;7.00;4.67;;;;;;;;5080588;28;45821;-76
2023/10/16 00:52:03;;;;;;;;;4.00;4.00;;;;;;;;5080498;28;45520;-77
2023/10/16 00:54:30;;;;;;;;;4.00;4.00;;;;;;;;5079077;28;45465;-76
2023/10/16 00:57:07;;;;;;;;;5.33;5.00;;;;;;;;5080743;28;45322;-77
2023/10/16 00:59:32;;;;;;;;;4.67;4.00;;;;;;;;5084161;28;45309;-76
2023/10/16 01:02:16;;;;;;;;;4.00;4.00;;;;;;;;5080128;28;45235;-78
2023/10/16 01:04:41;;;;;;;;;6.00;4.33;;;;;;;;5079317;28;45391;-76
2023/10/16 01:07:08;;;;;;;;;3.33;3.00;;;;;;;;5080700;28;45290;-77
2023/10/16 01:09:35;;;;;;;;;3.00;3.00;;;;;;;;5082877;28;45566;-77
2023/10/16 01:12:00;;;;;;;;;5.00;3.67;;;;;;;;5077796;28;45273;-77
2023/10/16 01:14:26;;;;;;;;;2.67;2.67;;;;;;;;5079721;28;45320;-76
2023/10/16 01:16:54;;;;;;;;;4.00;4.00;;;;;;;;5080179;28;45313;-76
2023/10/16 01:19:19;;;;;;;;;4.00;4.00;;;;;;;;5079653;28;48490;-76
2023/10/16 01:21:46;;;;;;;;;4.00;4.00;;;;;;;;5081793;28;45270;-76
2023/10/16 01:24:16;;;;;;;;;3.67;3.67;;;;;;;;5081583;28;45347;-76
2023/10/16 01:26:42;;;;;;;;;5.00;5.00;;;;;;;;5081165;28;45331;-77
2023/10/16 01:29:09;;;;;;;;;4.67;4.00;;;;;;;;5087691;27;45242;-76
2023/10/16 01:31:36;;;;;;;;;4.67;4.00;;;;;;;;5100360;27;45252;-77
2023/10/16 01:34:01;;;;;;;;;2.00;2.00;;;;;;;;5100157;27;45300;-77
2023/10/16 01:36:26;;;;;;;;;3.00;3.00;;;;;;;;5102162;27;45345;-77
2023/10/16 01:38:51;;;;;;;;;2.00;2.00;;;;;;;;5101931;27;45958;-77
2023/10/16 01:41:18;;;;;;;;;3.00;3.00;;;;;;;;5100427;27;45294;-77
2023/10/16 01:43:43;;;;;;;;;4.00;3.00;;;;;;;;5103528;27;45387;-76
2023/10/16 01:46:10;;;;;;;;;3.00;3.00;;;;;;;;5101186;27;45556;-76
2023/10/16 01:48:39;;;;;;;;;4.00;3.00;;;;;;;;5105396;27;45308;-76
2023/10/16 01:51:09;;;;;;;;;2.33;2.33;;;;;;;;5108804;27;45269;-76
2023/10/16 01:53:36;;;;;;;;;3.00;3.00;;;;;;;;5091303;27;45333;-77
2023/10/16 01:56:12;;;;;;;;;4.33;3.67;;;;;;;;5081228;28;46094;-77
2023/10/16 01:58:37;;;;;;;;;4.00;3.00;;;;;;;;5083042;28;47368;-76
2023/10/16 02:01:03;;;;;;;;;3.00;3.00;;;;;;;;5083583;28;45319;-76
2023/10/16 02:03:29;;;;;;;;;3.00;3.00;;;;;;;;5080112;28;45303;-77
2023/10/16 02:05:54;;;;;;;;;3.00;3.00;;;;;;;;5082772;28;45212;-77
2023/10/16 02:08:20;;;;;;;;;2.00;2.00;;;;;;;;5084287;28;45807;-77
2023/10/16 02:10:46;;;;;;;;;5.00;3.00;;;;;;;;5083611;28;45295;-76
2023/10/16 02:13:11;;;;;;;;;3.00;3.00;;;;;;;;5083488;28;45442;-76
2023/10/16 02:15:37;;;;;;;;;5.00;4.00;;;;;;;;5083704;28;45428;-77
2023/10/16 02:18:04;;;;;;;;;2.33;2.33;;;;;;;;5082292;28;45346;-76
2023/10/16 02:20:31;;;;;;;;;4.00;3.67;;;;;;;;5085684;28;45279;-77
2023/10/16 02:22:56;;;;;;;;;4.00;3.00;;;;;;;;5085261;28;45298;-76
2023/10/16 02:25:23;;;;;;;;;4.33;3.00;;;;;;;;5084334;28;45271;-77
2023/10/16 02:27:50;;;;;;;;;6.00;3.00;;;;;;;;5084290;28;45523;-77
2023/10/16 02:30:28;;;;;;;;;7.00;3.33;;;;;;;;5101817;27;45425;-76
2023/10/16 02:33:10;;;;;;;;;2.67;2.67;;;;;;;;5105976;27;45235;-76
2023/10/16 02:35:37;;;;;;;;;3.00;3.00;;;;;;;;5104406;27;45341;-77
2023/10/16 02:38:02;;;;;;;;;4.00;4.00;;;;;;;;5102585;27;47240;-76
2023/10/16 02:40:32;;;;;;;;;5.00;4.00;;;;;;;;5104644;27;45223;-77
2023/10/16 02:43:01;;;;;;;;;2.00;2.00;;;;;;;;5104608;27;45337;-76
2023/10/16 02:45:27;;;;;;;;;3.33;3.33;;;;;;;;5105041;27;46259;-76
2023/10/16 02:47:53;;;;;;;;;3.00;3.00;;;;;;;;5103202;27;45890;-76
2023/10/16 02:50:19;;;;;;;;;4.00;3.00;;;;;;;;5102076;27;45825;-77
2023/10/16 02:52:45;;;;;;;;;5.00;3.00;;;;;;;;5102644;27;45389;-77
2023/10/16 02:55:11;;;;;;;;;2.33;2.00;;;;;;;;5103518;27;45330;-77
2023/10/16 02:57:36;;;;;;;;;3.00;3.00;;;;;;;;5100903;27;47153;-77
2023/10/16 03:00:07;;;;;;;;;2.33;2.33;;;;;;;;5102994;27;45267;-76
2023/10/16 03:02:33;;;;;;;;;3.67;3.67;;;;;;;;5104937;27;45333;-76
2023/10/16 03:05:11;;;;;;;;;3.00;3.00;;;;;;;;5106014;27;47103;-76
2023/10/16 03:07:36;;;;;;;;;5.67;5.33;;;;;;;;5108324;27;46264;-77
2023/10/16 03:10:02;;;;;;;;;3.33;3.33;;;;;;;;5107886;27;45297;-77
2023/10/16 03:12:27;;;;;;;;;3.00;3.00;;;;;;;;5103205;27;45291;-77
2023/10/16 03:15:00;;;;;;;;;4.00;3.67;;;;;;;;5109116;27;45298;-76
2023/10/16 03:17:25;;;;;;;;;5.33;2.67;;;;;;;;5105352;27;46485;-76
2023/10/16 03:19:51;;;;;;;;;3.67;3.67;;;;;;;;5106222;27;45183;-76
2023/10/16 03:22:17;;;;;;;;;2.00;2.00;;;;;;;;5102831;27;45288;-77
2023/10/16 03:24:43;;;;;;;;;4.00;4.00;;;;;;;;5103845;27;45332;-76
2023/10/16 03:27:08;;;;;;;;;2.00;2.00;;;;;;;;5104342;27;45216;-77
2023/10/16 03:29:35;;;;;;;;;4.00;4.00;;;;;;;;5104671;27;45911;-76
2023/10/16 03:32:00;;;;;;;;;3.00;3.00;;;;;;;;5100665;27;45541;-77
2023/10/16 03:34:25;;;;;;;;;2.67;2.67;;;;;;;;5103560;27;47241;-77
2023/10/16 03:36:54;;;;;;;;;3.33;3.33;;;;;;;;5105544;27;45419;-76
2023/10/16 03:39:20;;;;;;;;;5.00;3.33;;;;;;;;5105158;27;45376;-77
2023/10/16 03:41:45;;;;;;;;;4.33;3.00;;;;;;;;5107324;27;45276;-76
2023/10/16 03:44:18;;;;;;;;;4.00;2.33;;;;;;;;5102778;27;46960;-76
2023/10/16 03:46:44;;;;;;;;;4.33;4.00;;;;;;;;5104782;27;46359;-76
2023/10/16 03:49:11;;;;;;;;;4.00;4.00;;;;;;;;5108215;27;45426;-76
2023/10/16 03:51:38;;;;;;;;;4.00;4.00;;;;;;;;5110257;27;45273;-76
2023/10/16 03:54:03;;;;;;;;;3.67;3.67;;;;;;;;5101525;27;46138;-75
2023/10/16 03:56:30;;;;;;;;;2.00;2.00;;;;;;;;5106040;27;47308;-76
2023/10/16 03:58:57;;;;;;;;;4.67;3.00;;;;;;;;5108190;27;45348;-77
2023/10/16 04:01:27;;;;;;;;;3.33;3.00;;;;;;;;5106016;27;45324;-76
2023/10/16 04:04:02;;;;;;;;;1.67;1.67;;;;;;;;5104545;27;46569;-76
2023/10/16 04:06:28;;;;;;;;;3.67;3.00;;;;;;;;5068513;27;47268;-76
2023/10/16 04:08:54;;;;;;;;;3.00;3.00;;;;;;;;5062282;28;45290;-76
2023/10/16 04:11:21;;;;;;;;;3.00;3.00;;;;;;;;5064369;28;45291;-77
2023/10/16 04:13:49;;;;;;;;;4.00;2.67;;;;;;;;5060691;28;45354;-77
2023/10/16 04:16:31;;;;;;;;;2.67;2.67;;;;;;;;5063814;28;46189;-76
2023/10/16 04:19:07;;;;;;;;;2.67;2.67;;;;;;;;5060499;28;45319;-76
2023/10/16 04:21:40;;;;;;;;;3.00;3.00;;;;;;;;5061303;28;45411;-77
2023/10/16 04:24:30;;;;;;;;;3.33;2.33;;;;;;;;5096239;27;45392;-77
2023/10/16 04:27:38;;;;;;;;;4.00;4.00;;;;;;;;5103886;27;45422;-77
2023/10/16 04:37:54;;;;;;;;;4.00;3.00;;;;;;;;5063808;28;45310;-76
2023/10/16 04:43:07;;;;;;;;;4.33;4.33;;;;;;;;5082009;28;44712;-76
2023/10/16 04:45:39;;;;;;;;;4.00;4.00;;;;;;;;5081318;28;47115;-76
2023/10/16 05:00:56;;;;;;;;;8.67;7.67;;;;;;;;5077372;28;45292;-77
2023/10/16 05:03:35;;;;;;;;;6.00;5.00;;;;;;;;5078733;28;45363;-76
2023/10/16 05:11:36;;;;;;;;;3.67;3.67;;;;;;;;5084128;28;45323;-77
2023/10/16 05:16:47;;;;;;;;;5.00;4.00;;;;;;;;5084672;28;45439;-76
2023/10/16 05:19:17;;;;;;;;;5.33;5.00;;;;;;;;5087804;28;46265;-75
2023/10/16 06:16:03;;;;;;;;;6.33;6.33;;;;;;;;5075712;28;45324;-79
2023/10/16 06:18:30;;;;;;;;;3.67;3.67;;;;;;;;5069933;28;45372;-76
2023/10/16 06:21:00;;;;;;;;;5.00;4.67;;;;;;;;5070473;28;45330;-79
2023/10/16 06:23:28;;;;;;;;;7.00;5.00;;;;;;;;5076045;28;46185;-78
2023/10/16 06:25:54;;;;;;;;;4.00;4.00;;;;;;;;5080383;28;45485;-79
2023/10/16 06:28:19;;;;;;;;;6.33;4.33;;;;;;;;5086368;27;45326;-77
2023/10/16 06:30:45;;;;;;;;;5.67;5.00;;;;;;;;5076189;27;45786;-78
2023/10/16 06:33:14;;;;;;;;;4.00;4.00;;;;;;;;5068854;28;48552;-77
2023/10/16 06:35:40;;;;;;;;;5.67;4.00;;;;;;;;5071113;28;45503;-78
2023/10/16 06:38:11;;;;;;;;;3.67;3.67;;;;;;;;5077523;28;45331;-78
2023/10/16 06:40:36;;;;;;;;;14.00;14.00;;;;;;;;5074426;28;45272;-78
2023/10/16 06:43:10;;;;;;;;;10.00;9.00;;;;;;;;5071070;28;45413;-78
2023/10/16 06:45:49;;;;;;;;;7.33;5.00;;;;;;;;5068376;28;45535;-77
2023/10/16 06:48:15;;;;;;;;;5.00;5.00;;;;;;;;5079140;28;45299;-76
2023/10/16 06:50:46;;;;;;;;;5.33;5.33;;;;;;;;5087590;28;45454;-78
2023/10/16 06:53:11;;;;;;;;;5.00;4.33;;;;;;;;5079934;28;45271;-76
2023/10/16 06:55:36;;;;;;;;;4.00;4.00;;;;;;;;5070349;28;45290;-75
2023/10/16 06:58:01;;;;;;;;;5.67;5.00;;;;;;;;5068867;28;45607;-76
2023/10/16 07:00:33;;;;;;;;;9.00;5.00;;;;;;;;5067427;28;45481;-75
2023/10/16 07:03:01;;;;;;;;;6.00;5.00;;;;;;;;5059940;28;46174;-75
2023/10/16 07:05:42;;;;;;;;;14.00;13.00;;;;;;;;5068376;28;45374;-75
2023/10/16 07:08:08;;;;;;;;;13.33;13.33;;;;;;;;5061005;28;45482;-75
2023/10/16 07:10:33;;;;;;;;;11.67;10.33;;;;;;;;5069440;28;45311;-75
2023/10/16 07:12:58;;;;;;;;;12.00;10.33;;;;;;;;5070443;28;47554;-76
2023/10/16 07:15:29;;;;;;;;;15.33;15.33;;;;;;;;5073935;28;45227;-78
2023/10/16 07:17:55;;;;;;;;;29.33;25.00;;;;;;;;5072123;28;45382;-77
2023/10/16 07:20:28;;;;;;;;;5.00;4.00;;;;;;;;5081865;28;46542;-75
2023/10/16 07:22:57;;;;;;;;;6.00;4.00;;;;;;;;5087407;28;45433;-75
2023/10/16 07:25:25;;;;;;;;;8.33;8.33;;;;;;;;5077703;28;45303;-75
2023/10/16 07:27:57;;;;;;;;;6.00;5.67;;;;;;;;5076961;28;45226;-76
2023/10/16 07:30:23;;;;;;;;;5.33;5.00;;;;;;;;5078940;27;45270;-75
2023/10/16 07:32:48;;;;;;;;;18.67;12.33;;;;;;;;5072247;28;47962;-75
2023/10/16 07:35:17;;;;;;;;;8.33;6.33;;;;;;;;5074471;28;45196;-75
2023/10/16 07:37:42;;;;;;;;;10.67;10.67;;;;;;;;5079429;28;45271;-76
2023/10/16 07:40:09;;;;;;;;;7.00;6.00;;;;;;;;5059649;28;45404;-77
2023/10/16 07:42:35;;;;;;;;;11.00;11.00;;;;;;;;5066265;28;47669;-77
2023/10/16 07:45:00;;;;;;;;;39.75;34.50;;;;;;;;5073637;28;45354;-76
2023/10/16 07:47:25;;;;;;;;;12.33;12.33;;;;;;;;5083860;28;45254;-78
2023/10/16 07:49:51;;;;;;;;;42.75;35.75;;;;;;;;5071733;28;45204;-79
2023/10/16 07:52:18;;;;;;;;;30.33;26.33;;;;;;;;5069375;28;48551;-77
2023/10/16 07:54:43;;;;;;;;;11.33;9.33;;;;;;;;5075319;28;45362;-79
2023/10/16 07:57:08;;;;;;;;;25.00;19.67;;;;;;;;5074174;28;45473;-77
2023/10/16 07:59:36;;;;;;;;;15.67;13.00;;;;;;;;5089373;28;45268;-75
2023/10/16 08:02:08;;;;;;;;;6.00;6.00;;;;;;;;5091166;27;45703;-76
2023/10/16 08:04:36;;;;;;;;;12.00;10.67;;;;;;;;5083678;28;44752;-75
2023/10/16 08:07:04;;;;;;;;;6.00;6.00;;;;;;;;5083996;27;45746;-76
2023/10/16 08:09:48;;;;;;;;;6.67;5.67;;;;;;;;5082639;28;45479;-75
2023/10/16 08:12:20;;;;;;;;;7.00;7.00;;;;;;;;5093882;28;45317;-75
2023/10/16 08:14:54;;;;;;;;;12.67;11.67;;;;;;;;5083811;28;45828;-75
2023/10/16 08:17:23;;;;;;;;;7.00;7.00;;;;;;;;5085682;28;44838;-75
2023/10/16 08:19:49;;;;;;;;;5.33;5.33;;;;;;;;5094171;27;45404;-77
2023/10/16 08:22:14;;;;;;;;;6.00;4.00;;;;;;;;5086056;28;45388;-78
2023/10/16 08:24:43;;;;;;;;;5.33;5.33;;;;;;;;5100473;27;45367;-75
2023/10/16 08:27:31;;;;;;;;;7.33;6.67;;;;;;;;5094439;28;45234;-76
2023/10/16 08:29:59;;;;;;;;;8.00;7.33;;;;;;;;5091569;28;45363;-75
2023/10/16 08:35:09;;;;;;;;;6.00;5.00;;;;;;;;5077860;28;45479;-75
2023/10/16 08:37:34;;;;;;;;;4.00;4.00;;;;;;;;5080752;28;45351;-77
2023/10/16 08:40:00;;;;;;;;;6.00;6.00;;;;;;;;5073615;28;46035;-77
2023/10/16 08:42:25;;;;;;;;;6.33;5.00;;;;;;;;5072096;28;47296;-77
2023/10/16 08:47:46;;;;;;;;;7.00;6.67;;;;;;;;5076678;28;45525;-76
2023/10/16 08:50:17;;;;;;;;;5.00;5.00;;;;;;;;5080942;28;45900;-77
2023/10/16 08:52:49;;;;;;;;;5.00;5.00;;;;;;;;5085288;28;45439;-76
2023/10/16 08:55:14;;;;;;;;;18.00;15.33;;;;;;;;5087416;28;45162;-76
2023/10/16 08:57:41;;;;;;;;;5.33;5.33;;;;;;;;5085202;28;44668;-76
2023/10/16 09:00:10;;;;;;;;;6.67;6.67;;;;;;;;5087275;28;44763;-76
2023/10/16 09:02:38;;;;;;;;;9.00;9.00;;;;;;;;5085566;28;45336;-79
2023/10/16 09:05:08;;;;;;;;;6.33;6.33;;;;;;;;5078661;28;45360;-75
2023/10/16 09:07:34;;;;;;;;;9.33;7.67;;;;;;;;5088739;27;46406;-75
2023/10/16 09:10:02;;;;;;;;;21.67;18.67;;;;;;;;5094371;27;45261;-76
2023/10/16 09:12:27;;;;;;;;;11.67;10.67;;;;;;;;5086678;28;45812;-75
2023/10/16 09:14:53;;;;;;;;;3.67;2.67;;;;;;;;5085608;27;44694;-76
2023/10/16 09:17:21;;;;;;;;;6.33;6.00;;;;;;;;5097269;28;45245;-75
2023/10/16 09:19:48;;;;;;;;;7.00;6.00;;;;;;;;5101450;27;45314;-76
2023/10/16 09:22:15;;;;;;;;;4.00;4.00;;;;;;;;5098167;27;45571;-77
2023/10/16 09:24:43;;;;;;;;;19.67;17.67;;;;;;;;5097762;27;44679;-78
2023/10/16 09:27:13;;;;;;;;;18.00;16.67;;;;;;;;5088506;28;44782;-79
2023/10/16 09:29:43;;;;;;;;;24.67;19.67;;;;;;;;5101145;27;45366;-77
2023/10/16 09:32:10;;;;;;;;;9.33;9.00;;;;;;;;5090229;28;46389;-77
2023/10/16 09:34:35;;;;;;;;;9.67;8.67;;;;;;;;5080396;27;45390;-75
2023/10/16 09:37:16;;;;;;;;;1.00;0.67;;;;;;;;5083963;28;45667;-74
2023/10/16 09:39:46;;;;;;;;;27.33;23.33;;;;;;;;5079124;27;45660;-75
2023/10/16 09:42:11;;;;;;;;;26.00;25.33;;;;;;;;5075795;28;45668;-74
2023/10/16 09:44:56;;;;;;;;;35.33;32.00;;;;;;;;5076040;27;45330;-75
2023/10/16 09:47:25;;;;;;;;;19.33;15.00;;;;;;;;5073339;28;45441;-74
2023/10/16 09:49:54;;;;;;;;;11.00;10.33;;;;;;;;5067156;28;45239;-75
2023/10/16 09:52:20;;;;;;;;;7.33;7.33;;;;;;;;5069966;28;45929;-75
2023/10/16 09:54:48;;;;;;;;;11.33;10.33;;;;;;;;5084193;28;45441;-75
2023/10/16 09:57:16;;;;;;;;;8.33;8.33;;;;;;;;5085522;28;45317;-75
2023/10/16 09:59:42;;;;;;;;;6.33;4.67;;;;;;;;5083421;28;45604;-74
2023/10/16 10:02:25;;;;;;;;;18.33;16.00;;;;;;;;5082056;28;47882;-74
2023/10/16 10:04:59;;;;;;;;;7.33;6.67;;;;;;;;5086542;28;45232;-78
2023/10/16 10:07:34;;;;;;;;;10.33;7.00;;;;;;;;5072296;28;45416;-74
2023/10/16 10:10:39;;;;;;;;;8.33;7.00;;;;;;;;5066487;28;45358;-77
2023/10/16 10:12:47;;;;;;;;;28.00;22.00;;;;;;;;5072878;28;45478;-79
2023/10/16 10:15:18;;;;;;;;;38.33;27.67;;;;;;;;5076884;28;45210;-78
2023/10/16 10:17:46;;;;;;;;;7.00;7.00;;;;;;;;5075057;28;45423;-77
2023/10/16 10:20:23;;;;;;;;;11.67;10.00;;;;;;;;5070090;28;46156;-78
2023/10/16 10:22:53;;;;;;;;;23.33;20.00;;;;;;;;5069331;28;45247;-79
2023/10/16 10:25:26;;;;;;;;;10.00;9.33;;;;;;;;5062218;28;45355;-79
2023/10/16 10:27:55;;;;;;;;;28.67;24.67;;;;;;;;5062889;28;45284;-78
2023/10/16 10:30:25;;;;;;;;;14.00;14.00;;;;;;;;5097366;27;45301;-78
2023/10/16 10:33:00;;;;;;;;;12.33;8.00;;;;;;;;5101257;27;45536;-76
2023/10/16 10:35:29;;;;;;;;;22.67;21.00;;;;;;;;5105674;27;46119;-78
2023/10/16 10:38:20;;;;;;;;;6.33;5.67;;;;;;;;5110555;27;45337;-76
2023/10/16 10:41:04;;;;;;;;;7.00;7.00;;;;;;;;5106674;27;45580;-76
2023/10/16 10:43:49;;;;;;;;;5.00;5.00;;;;;;;;5117426;27;47365;-78
2023/10/16 10:46:34;;;;;;;;;4.33;4.33;;;;;;;;5112277;27;45337;-78
2023/10/16 10:49:01;;;;;;;;;8.00;7.00;;;;;;;;5109317;27;45244;-76
2023/10/16 10:51:30;;;;;;;;;6.67;6.00;;;;;;;;5110390;27;47158;-74
2023/10/16 10:53:57;;;;;;;;;27.33;24.67;;;;;;;;5074768;28;45476;-74
2023/10/16 10:56:22;;;;;;;;;43.67;35.00;;;;;;;;5078172;28;45854;-76
2023/10/16 10:58:48;;;;;;;;;30.33;25.67;;;;;;;;5077135;28;45244;-76
2023/10/16 11:01:18;;;;;;;;;5.00;5.00;;;;;;;;5077430;28;46817;-78
2023/10/16 11:03:45;;;;;;;;;8.00;8.00;;;;;;;;5099993;28;45296;-75
2023/10/16 11:06:20;;;;;;;;;4.00;3.00;;;;;;;;5099515;28;45311;-76
2023/10/16 11:08:50;;;;;;;;;4.00;3.33;;;;;;;;5087921;28;45069;-76
2023/10/16 11:11:15;;;;;;;;;2.00;2.00;;;;;;;;5081410;28;46108;-77
2023/10/16 11:13:44;;;;;;;;;3.00;3.00;;;;;;;;5096756;27;47142;-75
2023/10/16 11:16:09;;;;;;;;;3.00;2.00;;;;;;;;5090295;28;44776;-77
2023/10/16 11:18:37;;;;;;;;;3.67;1.33;;;;;;;;5077673;28;45323;-77
2023/10/16 11:21:06;;;;;;;;;2.00;2.00;;;;;;;;5095454;28;45414;-75
2023/10/16 11:23:31;;;;;;;;;2.33;2.33;;;;;;;;5089716;28;45373;-75
2023/10/16 11:25:58;;;;;;;;;1.67;1.67;;;;;;;;5087345;28;45300;-77
2023/10/16 11:28:35;;;;;;;;;2.33;2.33;;;;;;;;5090080;27;44699;-76
2023/10/16 11:31:00;;;;;;;;;6.67;5.67;;;;;;;;5081349;28;46832;-75
2023/10/16 11:33:26;;;;;;;;;1.00;1.00;;;;;;;;5077838;28;45059;-77
2023/10/16 11:35:54;;;;;;;;;1.00;1.00;;;;;;;;5077576;28;45433;-76
2023/10/16 11:38:28;;;;;;;;;1.00;1.00;;;;;;;;5071819;28;45573;-76
2023/10/16 11:40:53;;;;;;;;;18.00;15.33;;;;;;;;5065750;28;45417;-77
2023/10/16 11:43:19;;;;;;;;;9.00;8.33;;;;;;;;5057664;28;46325;-77
2023/10/16 11:45:45;;;;;;;;;7.00;4.67;;;;;;;;5059796;28;45428;-76
2023/10/16 11:50:51;;;;;;;;;2.33;1.00;;;;;;;;5080459;28;45270;-77
2023/10/16 11:53:23;;;;;;;;;0.00;0.00;;;;;;;;5064055;28;48469;-78
2023/10/16 11:55:48;;;;;;;;;0.00;0.00;;;;;;;;5058052;28;45620;-75
2023/10/16 11:58:14;;;;;;;;;0.00;0.00;;;;;;;;5057906;28;45416;-75
2023/10/16 12:00:48;;;;;;;;;1.67;1.00;;;;;;;;5059589;28;45484;-76
2023/10/16 12:03:17;;;;;;;;;1.33;1.00;;;;;;;;5058900;28;45950;-75
2023/10/16 12:05:42;;;;;;;;;2.00;2.00;;;;;;;;5058154;28;45579;-74
2023/10/16 12:08:08;;;;;;;;;1.00;1.00;;;;;;;;5059217;28;45733;-73
2023/10/16 12:10:33;;;;;;;;;0.33;0.33;;;;;;;;5062210;28;45456;-76
2023/10/16 12:13:00;;;;;;;;;1.67;1.00;;;;;;;;5070793;28;45295;-75
2023/10/16 12:15:26;;;;;;;;;3.00;2.33;;;;;;;;5080629;28;45417;-75
2023/10/16 12:17:53;;;;;;;;;1.00;1.00;;;;;;;;5080357;28;45353;-75
2023/10/16 12:20:19;;;;;;;;;0.00;0.00;;;;;;;;5073354;28;45519;-73
2023/10/16 12:22:44;;;;;;;;;2.67;2.67;;;;;;;;5062798;28;46240;-75
2023/10/16 12:25:09;;;;;;;;;3.00;1.00;;;;;;;;5073288;28;45385;-75
2023/10/16 12:27:36;;;;;;;;;1.00;1.00;;;;;;;;5077971;28;45521;-74
2023/10/16 12:30:02;;;;;;;;;8.33;6.67;;;;;;;;5081000;27;45663;-75
2023/10/16 12:32:28;;;;;;;;;6.67;3.00;;;;;;;;5077312;28;46343;-74
2023/10/16 12:34:54;;;;;;;;;0.00;0.00;;;;;;;;5076580;28;45375;-74
2023/10/16 12:37:22;;;;;;;;;0.00;0.00;;;;;;;;5073916;28;45421;-75
2023/10/16 12:39:47;;;;;;;;;2.00;1.67;;;;;;;;5065267;28;45409;-76
2023/10/16 12:42:13;;;;;;;;;1.00;0.00;;;;;;;;5070464;28;46276;-74
2023/10/16 12:44:39;;;;;;;;;0.00;0.00;;;;;;;;5069752;28;45604;-76
2023/10/16 12:47:05;;;;;;;;;0.00;0.00;;;;;;;;5071989;28;45473;-76
2023/10/16 12:49:30;;;;;;;;;1.33;1.33;;;;;;;;5070999;28;45302;-76
2023/10/16 12:51:55;;;;;;;;;0.33;0.33;;;;;;;;5078852;28;45870;-76
2023/10/16 12:54:24;;;;;;;;;7.00;7.00;;;;;;;;5079516;28;45184;-75
2023/10/16 12:56:49;;;;;;;;;5.00;4.00;;;;;;;;5079038;28;45449;-77
2023/10/16 12:59:14;;;;;;;;;1.00;1.00;;;;;;;;5081240;27;46320;-75
2023/10/16 13:01:40;;;;;;;;;0.33;0.33;;;;;;;;5073100;27;47987;-74
2023/10/16 13:04:15;;;;;;;;;1.33;1.00;;;;;;;;5079900;27;45328;-73
2023/10/16 13:06:40;;;;;;;;;1.33;1.00;;;;;;;;5058005;28;45359;-75
2023/10/16 13:09:14;;;;;;;;;1.00;0.67;;;;;;;;5073079;28;45649;-76
2023/10/16 13:11:39;;;;;;;;;5.67;5.00;;;;;;;;5070982;27;45429;-75
2023/10/16 13:14:05;;;;;;;;;4.33;4.00;;;;;;;;5074674;28;45269;-75
2023/10/16 13:16:30;;;;;;;;;3.33;3.33;;;;;;;;5063486;28;45431;-73
2023/10/16 13:18:59;;;;;;;;;1.00;0.67;;;;;;;;5076629;28;45358;-73
2023/10/16 13:21:33;;;;;;;;;1.00;1.00;;;;;;;;5074513;28;46024;-74
2023/10/16 13:24:13;;;;;;;;;1.00;0.00;;;;;;;;5064402;28;45470;-74
2023/10/16 13:26:40;;;;;;;;;3.67;3.00;;;;;;;;5077989;28;45293;-74
2023/10/16 13:29:08;;;;;;;;;1.33;1.33;;;;;;;;5084661;27;45402;-75
2023/10/16 13:31:35;;;;;;;;;1.00;1.00;;;;;;;;5080039;27;48305;-74
2023/10/16 13:34:02;;;;;;;;;4.00;2.00;;;;;;;;5071067;28;45426;-75
2023/10/16 13:36:29;;;;;;;;;0.00;0.00;;;;;;;;5073959;28;45285;-75
2023/10/16 13:38:55;;;;;;;;;22.33;20.00;;;;;;;;5078254;27;45437;-75
2023/10/16 13:41:21;;;;;;;;;8.00;8.00;;;;;;;;5061956;28;45264;-74
2023/10/16 13:43:46;;;;;;;;;28.33;23.33;;;;;;;;5059392;28;45511;-75
2023/10/16 13:46:13;;;;;;;;;30.00;23.00;;;;;;;;5067266;28;45496;-76
2023/10/16 13:48:45;;;;;;;;;3.67;3.33;;;;;;;;5081437;28;45393;-75
2023/10/16 13:51:10;;;;;;;;;3.33;2.33;;;;;;;;5079822;28;47190;-75
2023/10/16 13:53:35;;;;;;;;;4.00;4.00;;;;;;;;5080491;28;45416;-77
2023/10/16 13:56:05;;;;;;;;;29.67;25.00;;;;;;;;5081525;28;45583;-76
2023/10/16 13:58:30;;;;;;;;;35.33;30.00;;;;;;;;5066016;28;45333;-75
2023/10/16 14:00:57;;;;;;;;;39.33;30.67;;;;;;;;5068886;28;45486;-75
2023/10/16 14:03:23;;;;;;;;;23.33;20.00;;;;;;;;5073359;28;45263;-77
2023/10/16 14:05:48;;;;;;;;;17.00;12.00;;;;;;;;5074432;28;45200;-75
2023/10/16 14:08:15;;;;;;;;;2.00;2.00;;;;;;;;5066277;28;45199;-75
2023/10/16 14:10:45;;;;;;;;;1.00;1.00;;;;;;;;5067001;28;46436;-74
2023/10/16 14:13:18;;;;;;;;;10.00;7.67;;;;;;;;5073413;28;45395;-75
2023/10/16 14:15:44;;;;;;;;;1.00;1.00;;;;;;;;5070493;28;45462;-76
2023/10/16 14:18:14;;;;;;;;;18.00;14.33;;;;;;;;5072438;28;46249;-75
2023/10/16 14:20:40;;;;;;;;;5.33;5.33;;;;;;;;5070487;28;46030;-75
2023/10/16 14:23:10;;;;;;;;;13.33;11.00;;;;;;;;5070568;28;45457;-76
2023/10/16 14:25:39;;;;;;;;;36.00;30.00;;;;;;;;5071878;28;45462;-77
2023/10/16 14:30:48;;;;;;;;;0.00;0.00;;;;;;;;5069139;28;45185;-75
2023/10/16 14:33:13;;;;;;;;;8.00;5.00;;;;;;;;5069873;28;45330;-75
2023/10/16 14:35:38;;;;;;;;;4.00;2.00;;;;;;;;5070471;28;45263;-77
2023/10/16 14:38:04;;;;;;;;;1.33;1.00;;;;;;;;5073575;28;46174;-75
2023/10/16 14:40:29;;;;;;;;;1.00;1.00;;;;;;;;5070488;28;47919;-76
2023/10/16 14:42:55;;;;;;;;;2.00;2.00;;;;;;;;5079865;28;45432;-76
2023/10/16 14:45:23;;;;;;;;;1.33;1.33;;;;;;;;5080683;28;45402;-76
2023/10/16 14:47:49;;;;;;;;;1.00;1.00;;;;;;;;5079444;28;46326;-75
2023/10/16 14:50:15;;;;;;;;;3.00;3.00;;;;;;;;5080264;28;46021;-77
2023/10/16 14:52:40;;;;;;;;;4.00;4.00;;;;;;;;5079898;28;45366;-76
2023/10/16 14:55:07;;;;;;;;;2.00;2.00;;;;;;;;5080296;27;45348;-75
2023/10/16 14:57:32;;;;;;;;;1.00;1.00;;;;;;;;5074206;27;45534;-76
2023/10/16 14:59:57;;;;;;;;;22.67;21.00;;;;;;;;5068587;27;46178;-77
2023/10/16 15:02:22;;;;;;;;;9.67;9.67;;;;;;;;5070343;28;45389;-75
2023/10/16 15:04:49;;;;;;;;;2.33;1.67;;;;;;;;5070495;28;45662;-78
2023/10/16 15:07:15;;;;;;;;;1.00;1.00;;;;;;;;5069596;28;45351;-76
2023/10/16 15:09:40;;;;;;;;;2.00;2.00;;;;;;;;5078641;28;45378;-76
2023/10/16 15:12:07;;;;;;;;;6.33;4.67;;;;;;;;5071656;28;45407;-76
2023/10/16 15:14:32;;;;;;;;;4.00;4.00;;;;;;;;5078674;28;45444;-75
2023/10/16 15:16:57;;;;;;;;;28.67;26.00;;;;;;;;5075217;28;45387;-76
2023/10/16 15:19:26;;;;;;;;;1.33;1.33;;;;;;;;5071173;28;45427;-77
2023/10/16 15:21:53;;;;;;;;;2.00;2.00;;;;;;;;5071391;28;45290;-76
2023/10/16 15:24:18;;;;;;;;;4.67;4.33;;;;;;;;5070377;28;45259;-75
2023/10/16 15:26:43;;;;;;;;;5.00;5.00;;;;;;;;5061768;28;45568;-75
2023/10/16 15:29:13;;;;;;;;;1.33;1.33;;;;;;;;5073519;27;45324;-75
2023/10/16 15:31:38;;;;;;;;;3.67;3.67;;;;;;;;5099070;27;45423;-76
2023/10/16 15:34:08;;;;;;;;;0.00;0.00;;;;;;;;5099981;27;45653;-75
2023/10/16 15:36:33;;;;;;;;;3.00;2.00;;;;;;;;5077626;27;45482;-76
2023/10/16 15:38:59;;;;;;;;;0.67;0.67;;;;;;;;5085148;28;46207;-75
2023/10/16 15:41:24;;;;;;;;;3.33;1.00;;;;;;;;5079773;28;45330;-75
2023/10/16 15:43:49;;;;;;;;;3.00;2.00;;;;;;;;5079029;28;45281;-76
2023/10/16 15:46:24;;;;;;;;;1.67;1.67;;;;;;;;5078521;28;45604;-76
2023/10/16 15:48:49;;;;;;;;;1.00;1.00;;;;;;;;5080282;28;45427;-75
2023/10/16 15:51:14;;;;;;;;;2.33;1.00;;;;;;;;5078408;28;46188;-75
2023/10/16 15:53:45;;;;;;;;;2.00;2.00;;;;;;;;5080864;28;45398;-76
2023/10/16 15:56:11;;;;;;;;;2.00;2.00;;;;;;;;5081194;28;45335;-76
2023/10/16 15:58:36;;;;;;;;;1.00;1.00;;;;;;;;5081792;28;45353;-76
2023/10/16 16:01:01;;;;;;;;;3.33;2.33;;;;;;;;5067042;28;45230;-75
2023/10/16 16:03:27;;;;;;;;;1.00;1.00;;;;;;;;5074043;28;45215;-75
2023/10/16 16:05:52;;;;;;;;;2.00;2.00;;;;;;;;5067698;28;45939;-75
2023/10/16 16:08:23;;;;;;;;;4.00;3.00;;;;;;;;5069563;28;46204;-75
2023/10/16 16:10:49;;;;;;;;;1.00;1.00;;;;;;;;5063415;28;45235;-75
2023/10/16 16:13:14;;;;;;;;;1.00;1.00;;;;;;;;5067041;28;45354;-75
2023/10/16 16:15:39;;;;;;;;;2.00;1.00;;;;;;;;5063211;28;45483;-76
2023/10/16 16:18:08;;;;;;;;;2.00;2.00;;;;;;;;5063386;28;47036;-75
2023/10/16 16:20:36;;;;;;;;;1.00;1.00;;;;;;;;5060986;28;45967;-75